sensor_id;sensor_type;location;lat;lon;timestamp;pressure;altitude;pressure_sealevel;temperature;humidity
46023;BME280;31756;47.936;16.224;2023-02-13T00:02:14;100760.03;;;2.00;100.00
46023;BME280;31756;47.936;16.224;2023-02-13T00:04:40;100753.09;;;1.96;100.00
46023;BME280;31756;47.936;16.224;2023-02-13T00:07:07;100753.59;;;1.89;100.00
46023;BME280;31756;47.936;16.224;2023-02-13T00:09:33;100749.91;;;1.82;100.00
46023;BME280;31756;47.936;16.224;2023-02-13T00:11:58;100747.69;;;1.72;100.00
46023;BME280;31756;47.936;16.224;2023-02-13T00:14:24;100754.31;;;1.70;100.00
46023;BME280;31756;47.936;16.224;2023-02-13T00:16:50;100750.94;;;1.69;100.00
46023;BME280;31756;47.936;16.224;2023-02-13T00:19:15;100755.03;;;1.67;100.00
46023;BME280;31756;47.936;16.224;2023-02-13T00:21:41;100754.28;;;1.52;100.00
46023;BME280;31756;47.936;16.224;2023-02-13T00:24:06;100762.50;;;1.48;100.00
46023;BME280;31756;47.936;16.224;2023-02-13T00:26:32;100766.25;;;1.40;100.00
46023;BME280;31756;47.936;16.224;2023-02-13T00:29:00;100761.06;;;1.37;100.00
46023;BME280;31756;47.936;16.224;2023-02-13T00:31:26;100755.84;;;1.34;100.00
46023;BME280;31756;47.936;16.224;2023-02-13T00:33:51;100758.63;;;1.22;100.00
46023;BME280;31756;47.936;16.224;2023-02-13T00:36:18;100759.88;;;1.14;100.00
46023;BME280;31756;47.936;16.224;2023-02-13T00:38:44;100759.41;;;1.05;100.00
46023;BME280;31756;47.936;16.224;2023-02-13T00:41:10;100758.81;;;0.95;100.00
46023;BME280;31756;47.936;16.224;2023-02-13T00:43:36;100764.00;;;0.81;100.00
46023;BME280;31756;47.936;16.224;2023-02-13T00:46:02;100766.47;;;0.80;100.00
46023;BME280;31756;47.936;16.224;2023-02-13T00:48:28;100770.13;;;0.70;100.00
46023;BME280;31756;47.936;16.224;2023-02-13T00:50:54;100768.13;;;0.65;100.00
46023;BME280;31756;47.936;16.224;2023-02-13T00:53:19;100773.59;;;0.72;100.00
46023;BME280;31756;47.936;16.224;2023-02-13T00:55:45;100769.09;;;0.67;100.00
46023;BME280;31756;47.936;16.224;2023-02-13T00:58:11;100772.88;;;0.59;100.00
46023;BME280;31756;47.936;16.224;2023-02-13T01:00:36;100764.56;;;0.61;100.00
46023;BME280;31756;47.936;16.224;2023-02-13T01:03:03;100761.13;;;0.59;100.00
46023;BME280;31756;47.936;16.224;2023-02-13T01:05:29;100767.09;;;0.61;100.00
46023;BME280;31756;47.936;16.224;2023-02-13T01:07:54;100761.75;;;0.55;100.00
46023;BME280;31756;47.936;16.224;2023-02-13T01:10:20;100764.16;;;0.54;100.00
46023;BME280;31756;47.936;16.224;2023-02-13T01:12:46;100761.63;;;0.54;100.00
46023;BME280;31756;47.936;16.224;2023-02-13T01:15:12;100762.22;;;0.64;100.00
46023;BME280;31756;47.936;16.224;2023-02-13T01:17:38;100757.63;;;0.57;100.00
46023;BME280;31756;47.936;16.224;2023-02-13T01:20:06;100770.00;;;0.53;100.00
46023;BME280;31756;47.936;16.224;2023-02-13T01:22:32;100765.56;;;0.49;100.00
46023;BME280;31756;47.936;16.224;2023-02-13T01:24:57;100761.75;;;0.55;100.00
46023;BME280;31756;47.936;16.224;2023-02-13T01:27:23;100766.28;;;0.46;100.00
46023;BME280;31756;47.936;16.224;2023-02-13T01:29:49;100766.19;;;0.44;100.00
46023;BME280;31756;47.936;16.224;2023-02-13T01:32:15;100763.56;;;0.43;100.00
46023;BME280;31756;47.936;16.224;2023-02-13T01:34:41;100764.53;;;0.45;100.00
46023;BME280;31756;47.936;16.224;2023-02-13T01:37:06;100758.97;;;0.36;100.00
46023;BME280;31756;47.936;16.224;2023-02-13T01:39:32;100762.72;;;0.28;100.00
46023;BME280;31756;47.936;16.224;2023-02-13T01:41:57;100756.44;;;0.21;100.00
46023;BME280;31756;47.936;16.224;2023-02-13T01:47:07;100757.50;;;0.25;100.00
46023;BME280;31756;47.936;16.224;2023-02-13T01:49:34;100764.47;;;0.14;100.00
46023;BME280;31756;47.936;16.224;2023-02-13T01:52:00;100763.44;;;0.11;100.00
46023;BME280;31756;47.936;16.224;2023-02-13T01:54:27;100754.88;;;0.09;100.00
46023;BME280;31756;47.936;16.224;2023-02-13T01:57:06;100752.88;;;0.18;100.00
46023;BME280;31756;47.936;16.224;2023-02-13T01:59:37;100751.59;;;0.24;100.00
46023;BME280;31756;47.936;16.224;2023-02-13T02:02:04;100754.19;;;0.26;100.00
46023;BME280;31756;47.936;16.224;2023-02-13T02:04:31;100751.25;;;0.18;100.00
46023;BME280;31756;47.936;16.224;2023-02-13T02:07:00;100748.47;;;0.14;100.00
46023;BME280;31756;47.936;16.224;2023-02-13T02:09:32;100743.34;;;0.12;100.00
46023;BME280;31756;47.936;16.224;2023-02-13T02:11:59;100743.59;;;0.17;100.00
46023;BME280;31756;47.936;16.224;2023-02-13T02:14:26;100748.66;;;0.17;100.00
46023;BME280;31756;47.936;16.224;2023-02-13T02:16:53;100738.56;;;0.17;100.00
46023;BME280;31756;47.936;16.224;2023-02-13T02:24:56;100749.53;;;0.03;100.00
46023;BME280;31756;47.936;16.224;2023-02-13T02:44:07;100738.28;;;0.27;100.00
46023;BME280;31756;47.936;16.224;2023-02-13T02:46:37;100725.72;;;0.43;100.00
46023;BME280;31756;47.936;16.224;2023-02-13T02:49:27;100729.88;;;0.57;100.00
46023;BME280;31756;47.936;16.224;2023-02-13T02:52:20;100721.69;;;0.77;100.00
46023;BME280;31756;47.936;16.224;2023-02-13T02:54:56;100730.56;;;0.85;100.00
46023;BME280;31756;47.936;16.224;2023-02-13T02:57:36;100727.25;;;0.86;100.00
46023;BME280;31756;47.936;16.224;2023-02-13T03:00:22;100721.88;;;0.80;100.00
46023;BME280;31756;47.936;16.224;2023-02-13T03:03:17;100731.13;;;0.80;100.00
46023;BME280;31756;47.936;16.224;2023-02-13T03:06:03;100735.28;;;0.79;100.00
46023;BME280;31756;47.936;16.224;2023-02-13T03:08:36;100729.47;;;0.80;100.00
46023;BME280;31756;47.936;16.224;2023-02-13T03:11:21;100733.00;;;0.84;100.00
46023;BME280;31756;47.936;16.224;2023-02-13T03:14:06;100727.09;;;0.83;100.00
46023;BME280;31756;47.936;16.224;2023-02-13T03:16:34;100727.00;;;0.82;100.00
46023;BME280;31756;47.936;16.224;2023-02-13T03:19:27;100725.25;;;0.81;100.00
46023;BME280;31756;47.936;16.224;2023-02-13T03:22:26;100732.06;;;0.98;100.00
46023;BME280;31756;47.936;16.224;2023-02-13T03:25:57;100724.53;;;1.14;100.00
46023;BME280;31756;47.936;16.224;2023-02-13T03:28:03;100733.28;;;1.37;100.00
46023;BME280;31756;47.936;16.224;2023-02-13T03:35:48;100719.22;;;1.26;100.00
46023;BME280;31756;47.936;16.224;2023-02-13T03:38:37;100717.97;;;1.34;100.00
46023;BME280;31756;47.936;16.224;2023-02-13T03:41:10;100717.00;;;1.32;100.00
46023;BME280;31756;47.936;16.224;2023-02-13T03:46:30;100718.19;;;1.38;100.00
46023;BME280;31756;47.936;16.224;2023-02-13T03:48:58;100712.09;;;1.51;100.00
46023;BME280;31756;47.936;16.224;2023-02-13T03:51:44;100716.75;;;1.60;100.00
46023;BME280;31756;47.936;16.224;2023-02-13T03:54:22;100723.84;;;1.67;100.00
46023;BME280;31756;47.936;16.224;2023-02-13T03:57:08;100725.44;;;1.65;100.00
46023;BME280;31756;47.936;16.224;2023-02-13T03:59:54;100716.97;;;1.64;100.00
46023;BME280;31756;47.936;16.224;2023-02-13T04:02:24;100717.50;;;1.75;100.00
46023;BME280;31756;47.936;16.224;2023-02-13T04:04:51;100719.56;;;1.82;100.00
46023;BME280;31756;47.936;16.224;2023-02-13T04:07:20;100722.00;;;1.80;100.00
46023;BME280;31756;47.936;16.224;2023-02-13T04:09:57;100719.47;;;1.80;100.00
46023;BME280;31756;47.936;16.224;2023-02-13T04:12:25;100712.81;;;1.82;100.00
46023;BME280;31756;47.936;16.224;2023-02-13T04:14:59;100717.16;;;1.85;100.00
46023;BME280;31756;47.936;16.224;2023-02-13T04:17:30;100718.31;;;1.92;100.00
46023;BME280;31756;47.936;16.224;2023-02-13T04:19:57;100715.97;;;1.95;100.00
46023;BME280;31756;47.936;16.224;2023-02-13T04:22:23;100717.84;;;1.99;100.00
46023;BME280;31756;47.936;16.224;2023-02-13T04:24:49;100712.94;;;2.02;100.00
46023;BME280;31756;47.936;16.224;2023-02-13T04:27:15;100711.50;;;2.07;100.00
46023;BME280;31756;47.936;16.224;2023-02-13T04:29:41;100705.28;;;2.18;100.00
46023;BME280;31756;47.936;16.224;2023-02-13T04:32:08;100706.66;;;2.29;100.00
46023;BME280;31756;47.936;16.224;2023-02-13T04:34:34;100703.91;;;2.24;100.00
46023;BME280;31756;47.936;16.224;2023-02-13T04:37:00;100704.97;;;2.29;100.00
46023;BME280;31756;47.936;16.224;2023-02-13T04:39:25;100705.06;;;2.31;100.00
46023;BME280;31756;47.936;16.224;2023-02-13T04:41:51;100711.44;;;2.41;100.00
46023;BME280;31756;47.936;16.224;2023-02-13T04:44:16;100703.72;;;2.38;100.00
46023;BME280;31756;47.936;16.224;2023-02-13T04:46:42;100708.53;;;2.33;100.00
46023;BME280;31756;47.936;16.224;2023-02-13T04:49:08;100704.63;;;2.40;100.00
46023;BME280;31756;47.936;16.224;2023-02-13T04:51:34;100705.41;;;2.39;100.00
46023;BME280;31756;47.936;16.224;2023-02-13T04:53:59;100715.09;;;2.47;100.00
46023;BME280;31756;47.936;16.224;2023-02-13T04:56:25;100701.09;;;2.54;100.00
46023;BME280;31756;47.936;16.224;2023-02-13T04:58:50;100713.56;;;2.68;100.00
46023;BME280;31756;47.936;16.224;2023-02-13T05:01:15;100712.25;;;2.76;100.00
46023;BME280;31756;47.936;16.224;2023-02-13T05:03:41;100713.72;;;2.71;100.00
46023;BME280;31756;47.936;16.224;2023-02-13T05:06:07;100705.97;;;2.68;100.00
46023;BME280;31756;47.936;16.224;2023-02-13T05:08:33;100700.75;;;2.65;100.00
46023;BME280;31756;47.936;16.224;2023-02-13T05:10:58;100701.91;;;2.72;100.00
46023;BME280;31756;47.936;16.224;2023-02-13T05:13:23;100698.31;;;2.67;100.00
46023;BME280;31756;47.936;16.224;2023-02-13T05:15:49;100700.19;;;2.71;100.00
46023;BME280;31756;47.936;16.224;2023-02-13T05:18:16;100699.53;;;2.75;100.00
46023;BME280;31756;47.936;16.224;2023-02-13T05:20:42;100700.91;;;2.68;100.00
46023;BME280;31756;47.936;16.224;2023-02-13T05:23:08;100692.38;;;2.66;100.00
46023;BME280;31756;47.936;16.224;2023-02-13T05:25:46;100688.91;;;2.64;100.00
46023;BME280;31756;47.936;16.224;2023-02-13T05:28:12;100688.84;;;2.63;100.00
46023;BME280;31756;47.936;16.224;2023-02-13T05:31:07;100687.22;;;2.65;100.00
46023;BME280;31756;47.936;16.224;2023-02-13T05:33:33;100681.59;;;2.90;100.00
46023;BME280;31756;47.936;16.224;2023-02-13T05:35:58;100688.28;;;3.07;100.00
46023;BME280;31756;47.936;16.224;2023-02-13T05:38:23;100680.53;;;3.23;100.00
46023;BME280;31756;47.936;16.224;2023-02-13T05:40:49;100689.69;;;3.39;100.00
46023;BME280;31756;47.936;16.224;2023-02-13T05:43:14;100687.88;;;3.36;100.00
46023;BME280;31756;47.936;16.224;2023-02-13T05:45:40;100692.88;;;3.35;100.00
46023;BME280;31756;47.936;16.224;2023-02-13T05:48:05;100691.53;;;3.23;100.00
46023;BME280;31756;47.936;16.224;2023-02-13T05:50:31;100695.28;;;3.12;100.00
46023;BME280;31756;47.936;16.224;2023-02-13T05:52:56;100693.63;;;3.13;100.00
46023;BME280;31756;47.936;16.224;2023-02-13T05:55:22;100688.22;;;3.05;100.00
46023;BME280;31756;47.936;16.224;2023-02-13T05:57:47;100686.34;;;3.01;100.00
46023;BME280;31756;47.936;16.224;2023-02-13T06:00:13;100704.47;;;2.91;100.00
46023;BME280;31756;47.936;16.224;2023-02-13T06:02:38;100704.41;;;2.90;100.00
46023;BME280;31756;47.936;16.224;2023-02-13T06:05:04;100704.13;;;2.84;100.00
46023;BME280;31756;47.936;16.224;2023-02-13T06:07:30;100702.06;;;2.75;100.00
46023;BME280;31756;47.936;16.224;2023-02-13T06:09:55;100707.34;;;2.80;100.00
46023;BME280;31756;47.936;16.224;2023-02-13T06:12:23;100701.53;;;2.82;100.00
46023;BME280;31756;47.936;16.224;2023-02-13T06:14:49;100710.00;;;2.83;100.00
46023;BME280;31756;47.936;16.224;2023-02-13T06:17:14;100707.13;;;2.75;100.00
46023;BME280;31756;47.936;16.224;2023-02-13T06:19:40;100713.09;;;2.77;100.00
46023;BME280;31756;47.936;16.224;2023-02-13T06:22:05;100709.00;;;2.79;100.00
46023;BME280;31756;47.936;16.224;2023-02-13T06:24:32;100713.06;;;2.75;100.00
46023;BME280;31756;47.936;16.224;2023-02-13T06:26:57;100714.94;;;2.80;100.00
46023;BME280;31756;47.936;16.224;2023-02-13T06:29:23;100717.59;;;2.83;100.00
46023;BME280;31756;47.936;16.224;2023-02-13T06:31:48;100720.38;;;2.89;100.00
46023;BME280;31756;47.936;16.224;2023-02-13T06:34:14;100718.00;;;2.92;100.00
46023;BME280;31756;47.936;16.224;2023-02-13T06:36:39;100713.53;;;2.86;100.00
46023;BME280;31756;47.936;16.224;2023-02-13T06:39:08;100719.56;;;2.88;100.00
46023;BME280;31756;47.936;16.224;2023-02-13T06:41:33;100725.63;;;2.92;100.00
46023;BME280;31756;47.936;16.224;2023-02-13T06:43:59;100721.66;;;2.98;100.00
46023;BME280;31756;47.936;16.224;2023-02-13T06:46:24;100717.75;;;3.05;100.00
46023;BME280;31756;47.936;16.224;2023-02-13T06:48:50;100720.97;;;3.20;100.00
46023;BME280;31756;47.936;16.224;2023-02-13T06:51:15;100725.75;;;3.33;100.00
46023;BME280;31756;47.936;16.224;2023-02-13T06:53:41;100720.81;;;3.55;100.00
46023;BME280;31756;47.936;16.224;2023-02-13T06:56:06;100727.31;;;3.69;100.00
46023;BME280;31756;47.936;16.224;2023-02-13T06:58:32;100719.97;;;3.76;100.00
46023;BME280;31756;47.936;16.224;2023-02-13T07:00:58;100722.81;;;3.83;100.00
46023;BME280;31756;47.936;16.224;2023-02-13T07:03:23;100718.22;;;3.94;100.00
46023;BME280;31756;47.936;16.224;2023-02-13T07:05:49;100721.66;;;3.96;100.00
46023;BME280;31756;47.936;16.224;2023-02-13T07:08:16;100731.91;;;3.99;100.00
46023;BME280;31756;47.936;16.224;2023-02-13T07:10:41;100741.34;;;4.01;100.00
46023;BME280;31756;47.936;16.224;2023-02-13T07:13:07;100735.84;;;4.11;100.00
46023;BME280;31756;47.936;16.224;2023-02-13T07:15:33;100727.00;;;4.23;100.00
46023;BME280;31756;47.936;16.224;2023-02-13T07:17:59;100729.53;;;4.23;100.00
46023;BME280;31756;47.936;16.224;2023-02-13T07:20:24;100729.75;;;4.29;100.00
46023;BME280;31756;47.936;16.224;2023-02-13T07:22:50;100733.41;;;4.35;100.00
46023;BME280;31756;47.936;16.224;2023-02-13T07:25:16;100736.44;;;4.47;100.00
46023;BME280;31756;47.936;16.224;2023-02-13T07:27:41;100727.94;;;4.47;100.00
46023;BME280;31756;47.936;16.224;2023-02-13T07:30:07;100730.59;;;4.50;100.00
46023;BME280;31756;47.936;16.224;2023-02-13T07:32:32;100746.16;;;4.57;100.00
46023;BME280;31756;47.936;16.224;2023-02-13T07:34:58;100733.75;;;4.65;100.00
46023;BME280;31756;47.936;16.224;2023-02-13T07:37:23;100742.63;;;4.54;100.00
46023;BME280;31756;47.936;16.224;2023-02-13T07:39:48;100742.69;;;4.55;100.00
46023;BME280;31756;47.936;16.224;2023-02-13T07:42:14;100746.78;;;4.52;100.00
46023;BME280;31756;47.936;16.224;2023-02-13T07:44:39;100744.53;;;4.59;100.00
46023;BME280;31756;47.936;16.224;2023-02-13T07:47:05;100740.59;;;4.68;100.00
46023;BME280;31756;47.936;16.224;2023-02-13T07:49:30;100735.41;;;4.65;100.00
46023;BME280;31756;47.936;16.224;2023-02-13T07:51:56;100741.53;;;4.70;100.00
46023;BME280;31756;47.936;16.224;2023-02-13T07:54:22;100745.06;;;4.73;100.00
46023;BME280;31756;47.936;16.224;2023-02-13T07:56:48;100740.69;;;4.69;100.00
46023;BME280;31756;47.936;16.224;2023-02-13T07:59:13;100735.69;;;4.72;100.00
46023;BME280;31756;47.936;16.224;2023-02-13T08:01:39;100743.13;;;4.68;100.00
46023;BME280;31756;47.936;16.224;2023-02-13T08:04:04;100740.59;;;4.68;100.00
46023;BME280;31756;47.936;16.224;2023-02-13T08:06:29;100748.13;;;4.65;100.00
46023;BME280;31756;47.936;16.224;2023-02-13T08:08:55;100742.44;;;4.72;100.00
46023;BME280;31756;47.936;16.224;2023-02-13T08:11:39;100749.34;;;4.74;100.00
46023;BME280;31756;47.936;16.224;2023-02-13T08:14:24;100747.84;;;4.79;100.00
46023;BME280;31756;47.936;16.224;2023-02-13T08:16:49;100744.78;;;4.88;100.00
46023;BME280;31756;47.936;16.224;2023-02-13T08:19:15;100754.47;;;4.98;100.00
46023;BME280;31756;47.936;16.224;2023-02-13T08:21:40;100744.41;;;5.01;100.00
46023;BME280;31756;47.936;16.224;2023-02-13T08:24:07;100746.94;;;5.01;100.00
46023;BME280;31756;47.936;16.224;2023-02-13T08:26:32;100750.38;;;5.01;100.00
46023;BME280;31756;47.936;16.224;2023-02-13T08:28:58;100753.88;;;5.05;100.00
46023;BME280;31756;47.936;16.224;2023-02-13T08:31:24;100748.88;;;5.06;100.00
46023;BME280;31756;47.936;16.224;2023-02-13T08:33:49;100750.53;;;5.06;100.00
46023;BME280;31756;47.936;16.224;2023-02-13T08:36:15;100750.97;;;5.18;100.00
46023;BME280;31756;47.936;16.224;2023-02-13T08:38:40;100747.97;;;5.28;100.00
46023;BME280;31756;47.936;16.224;2023-02-13T08:41:06;100748.25;;;5.36;100.00
46023;BME280;31756;47.936;16.224;2023-02-13T08:43:32;100749.44;;;5.45;100.00
46023;BME280;31756;47.936;16.224;2023-02-13T08:45:57;100748.13;;;5.33;100.00
46023;BME280;31756;47.936;16.224;2023-02-13T08:48:25;100752.97;;;5.25;100.00
46023;BME280;31756;47.936;16.224;2023-02-13T08:50:51;100749.47;;;5.23;100.00
46023;BME280;31756;47.936;16.224;2023-02-13T08:53:16;100752.72;;;5.19;100.00
46023;BME280;31756;47.936;16.224;2023-02-13T08:55:42;100750.00;;;5.15;100.00
46023;BME280;31756;47.936;16.224;2023-02-13T08:58:07;100750.19;;;5.19;100.00
46023;BME280;31756;47.936;16.224;2023-02-13T09:00:32;100742.25;;;5.34;100.00
46023;BME280;31756;47.936;16.224;2023-02-13T09:03:01;100750.94;;;5.40;100.00
46023;BME280;31756;47.936;16.224;2023-02-13T09:05:27;100753.41;;;5.37;100.00
46023;BME280;31756;47.936;16.224;2023-02-13T09:07:53;100745.13;;;5.43;100.00
46023;BME280;31756;47.936;16.224;2023-02-13T09:10:20;100756.47;;;5.52;100.00
46023;BME280;31756;47.936;16.224;2023-02-13T09:12:52;100755.13;;;5.62;100.00
46023;BME280;31756;47.936;16.224;2023-02-13T09:15:18;100761.97;;;5.65;100.00
46023;BME280;31756;47.936;16.224;2023-02-13T09:17:43;100750.03;;;5.62;100.00
46023;BME280;31756;47.936;16.224;2023-02-13T09:20:09;100753.00;;;5.74;100.00
46023;BME280;31756;47.936;16.224;2023-02-13T09:22:34;100750.09;;;5.64;100.00
46023;BME280;31756;47.936;16.224;2023-02-13T09:24:59;100756.31;;;5.72;100.00
46023;BME280;31756;47.936;16.224;2023-02-13T09:27:28;100755.06;;;5.86;100.00
46023;BME280;31756;47.936;16.224;2023-02-13T09:29:54;100753.06;;;5.76;100.00
46023;BME280;31756;47.936;16.224;2023-02-13T09:32:19;100757.63;;;5.86;100.00
46023;BME280;31756;47.936;16.224;2023-02-13T09:34:45;100767.34;;;5.96;100.00
46023;BME280;31756;47.936;16.224;2023-02-13T09:37:10;100758.22;;;6.03;100.00
46023;BME280;31756;47.936;16.224;2023-02-13T09:39:36;100764.91;;;5.99;100.00
46023;BME280;31756;47.936;16.224;2023-02-13T09:42:01;100763.75;;;6.15;100.00
46023;BME280;31756;47.936;16.224;2023-02-13T09:44:33;100770.53;;;6.16;100.00
46023;BME280;31756;47.936;16.224;2023-02-13T09:47:03;100767.94;;;6.39;100.00
46023;BME280;31756;47.936;16.224;2023-02-13T09:49:31;100766.59;;;6.51;100.00
46023;BME280;31756;47.936;16.224;2023-02-13T09:51:57;100770.66;;;6.44;100.00
46023;BME280;31756;47.936;16.224;2023-02-13T09:54:23;100754.34;;;6.66;100.00
46023;BME280;31756;47.936;16.224;2023-02-13T09:56:54;100768.09;;;6.44;100.00
46023;BME280;31756;47.936;16.224;2023-02-13T09:59:41;100768.75;;;6.38;100.00
46023;BME280;31756;47.936;16.224;2023-02-13T10:04:47;100766.78;;;6.30;100.00
46023;BME280;31756;47.936;16.224;2023-02-13T10:07:33;100772.84;;;6.33;100.00
46023;BME280;31756;47.936;16.224;2023-02-13T10:10:07;100776.75;;;6.49;100.00
46023;BME280;31756;47.936;16.224;2023-02-13T10:12:45;100776.13;;;6.56;100.00
46023;BME280;31756;47.936;16.224;2023-02-13T10:16:16;100777.41;;;6.43;100.00
46023;BME280;31756;47.936;16.224;2023-02-13T10:18:11;100771.06;;;6.31;100.00
46023;BME280;31756;47.936;16.224;2023-02-13T10:20:46;100777.31;;;6.40;100.00
46023;BME280;31756;47.936;16.224;2023-02-13T10:28:14;100772.34;;;6.45;100.00
46023;BME280;31756;47.936;16.224;2023-02-13T10:31:03;100782.38;;;6.39;100.00
46023;BME280;31756;47.936;16.224;2023-02-13T10:33:33;100777.75;;;6.54;100.00
46023;BME280;31756;47.936;16.224;2023-02-13T10:38:27;100772.69;;;6.56;100.00
46023;BME280;31756;47.936;16.224;2023-02-13T10:41:02;100772.75;;;6.57;100.00
46023;BME280;31756;47.936;16.224;2023-02-13T10:43:31;100771.41;;;6.68;100.00
46023;BME280;31756;47.936;16.224;2023-02-13T10:46:13;100773.03;;;6.66;100.00
46023;BME280;31756;47.936;16.224;2023-02-13T10:56:33;100749.56;;;6.76;100.00
46023;BME280;31756;47.936;16.224;2023-02-13T11:01:38;100749.63;;;6.78;100.00
46023;BME280;31756;47.936;16.224;2023-02-13T11:04:07;100752.84;;;6.72;100.00
46023;BME280;31756;47.936;16.224;2023-02-13T11:06:34;100752.78;;;6.71;100.00
46023;BME280;31756;47.936;16.224;2023-02-13T11:09:02;100749.41;;;6.72;100.00
46023;BME280;31756;47.936;16.224;2023-02-13T11:11:33;100748.53;;;6.71;100.00
46023;BME280;31756;47.936;16.224;2023-02-13T11:16:42;100748.53;;;6.71;100.00
46023;BME280;31756;47.936;16.224;2023-02-13T11:19:14;100743.88;;;6.58;100.00
46023;BME280;31756;47.936;16.224;2023-02-13T11:21:42;100756.03;;;6.38;100.00
46023;BME280;31756;47.936;16.224;2023-02-13T11:24:07;100757.53;;;6.32;100.00
46023;BME280;31756;47.936;16.224;2023-02-13T11:26:41;100749.81;;;6.30;100.00
46023;BME280;31756;47.936;16.224;2023-02-13T11:29:24;100745.34;;;6.23;100.00
46023;BME280;31756;47.936;16.224;2023-02-13T11:34:45;100752.16;;;6.24;100.00
46023;BME280;31756;47.936;16.224;2023-02-13T11:39:36;100741.59;;;6.39;100.00
46023;BME280;31756;47.936;16.224;2023-02-13T11:42:01;100747.66;;;6.42;100.00
46023;BME280;31756;47.936;16.224;2023-02-13T11:44:27;100749.97;;;6.35;100.00
46023;BME280;31756;47.936;16.224;2023-02-13T11:46:57;100734.38;;;6.26;100.00
46023;BME280;31756;47.936;16.224;2023-02-13T11:49:27;100737.47;;;6.42;100.00
46023;BME280;31756;47.936;16.224;2023-02-13T11:51:56;100747.47;;;6.36;100.00
46023;BME280;31756;47.936;16.224;2023-02-13T11:54:28;100730.47;;;6.35;100.00
46023;BME280;31756;47.936;16.224;2023-02-13T11:56:59;100752.41;;;6.59;100.00
46023;BME280;31756;47.936;16.224;2023-02-13T11:59:25;100727.28;;;6.71;100.00
46023;BME280;31756;47.936;16.224;2023-02-13T12:04:35;100721.25;;;6.96;100.00
46023;BME280;31756;47.936;16.224;2023-02-13T12:07:02;100722.09;;;6.96;100.00
46023;BME280;31756;47.936;16.224;2023-02-13T12:09:28;100716.06;;;7.22;100.00
46023;BME280;31756;47.936;16.224;2023-02-13T12:11:56;100709.94;;;7.17;100.00
46023;BME280;31756;47.936;16.224;2023-02-13T12:14:24;100709.22;;;7.21;100.00
46023;BME280;31756;47.936;16.224;2023-02-13T12:16:53;100706.66;;;7.21;100.00
46023;BME280;31756;47.936;16.224;2023-02-13T12:19:21;100705.09;;;7.26;100.00
46023;BME280;31756;47.936;16.224;2023-02-13T12:24:20;100693.22;;;7.27;100.00
46023;BME280;31756;47.936;16.224;2023-02-13T12:26:49;100694.91;;;7.26;100.00
46023;BME280;31756;47.936;16.224;2023-02-13T12:32:16;100689.66;;;7.22;100.00
46023;BME280;31756;47.936;16.224;2023-02-13T12:42:27;100674.00;;;7.40;100.00
46023;BME280;31756;47.936;16.224;2023-02-13T12:50:45;100665.97;;;7.26;100.00
46023;BME280;31756;47.936;16.224;2023-02-13T12:56:01;100672.41;;;7.12;100.00
46023;BME280;31756;47.936;16.224;2023-02-13T13:04:19;100661.63;;;7.22;100.00
46023;BME280;31756;47.936;16.224;2023-02-13T13:09:59;100667.28;;;7.42;100.00
46023;BME280;31756;47.936;16.224;2023-02-13T13:15:15;100664.91;;;7.18;100.00
46023;BME280;31756;47.936;16.224;2023-02-13T13:28:16;100663.34;;;7.23;100.00
46023;BME280;31756;47.936;16.224;2023-02-13T13:30:43;100672.19;;;7.34;100.00
46023;BME280;31756;47.936;16.224;2023-02-13T13:40:58;100668.13;;;7.11;100.00
46023;BME280;31756;47.936;16.224;2023-02-13T13:51:12;100661.91;;;7.32;100.00
46023;BME280;31756;47.936;16.224;2023-02-13T13:54:22;100666.41;;;7.41;100.00
46023;BME280;31756;47.936;16.224;2023-02-13T14:04:43;100663.59;;;7.32;100.00
46023;BME280;31756;47.936;16.224;2023-02-13T14:07:24;100662.06;;;7.39;100.00
46023;BME280;31756;47.936;16.224;2023-02-13T14:09:50;100657.69;;;7.34;100.00
46023;BME280;31756;47.936;16.224;2023-02-13T14:14:53;100661.44;;;7.47;100.00
46023;BME280;31756;47.936;16.224;2023-02-13T14:20:02;100660.28;;;7.69;100.00
46023;BME280;31756;47.936;16.224;2023-02-13T14:22:41;100655.50;;;7.81;100.00
46023;BME280;31756;47.936;16.224;2023-02-13T14:25:19;100658.84;;;7.78;100.00
46023;BME280;31756;47.936;16.224;2023-02-13T14:27:54;100660.66;;;7.82;100.00
46023;BME280;31756;47.936;16.224;2023-02-13T14:32:51;100664.06;;;7.83;100.00
46023;BME280;31756;47.936;16.224;2023-02-13T14:35:25;100662.63;;;7.94;100.00
46023;BME280;31756;47.936;16.224;2023-02-13T14:42:43;100655.59;;;7.86;100.00
46023;BME280;31756;47.936;16.224;2023-02-13T14:45:14;100655.66;;;7.87;100.00
46023;BME280;31756;47.936;16.224;2023-02-13T14:47:44;100651.53;;;7.92;100.00
46023;BME280;31756;47.936;16.224;2023-02-13T14:52:46;100645.78;;;8.02;100.00
46023;BME280;31756;47.936;16.224;2023-02-13T14:57:53;100644.09;;;8.03;100.00
46023;BME280;31756;47.936;16.224;2023-02-13T15:00:25;100644.91;;;8.00;100.00
46023;BME280;31756;47.936;16.224;2023-02-13T15:02:58;100646.03;;;7.77;100.00
46023;BME280;31756;47.936;16.224;2023-02-13T15:05:28;100649.84;;;7.60;100.00
46023;BME280;31756;47.936;16.224;2023-02-13T15:08:18;100648.78;;;7.52;100.00
46023;BME280;31756;47.936;16.224;2023-02-13T15:13:16;100639.38;;;7.49;100.00
46023;BME280;31756;47.936;16.224;2023-02-13T15:15:43;100639.31;;;7.46;100.00
46023;BME280;31756;47.936;16.224;2023-02-13T15:18:15;100640.38;;;7.23;100.00
46023;BME280;31756;47.936;16.224;2023-02-13T15:20:43;100636.41;;;7.01;100.00
46023;BME280;31756;47.936;16.224;2023-02-13T15:23:17;100633.09;;;7.04;100.00